Time;durP1;ratioP1;P1;durP2;ratioP2;P2;SDS_P1;SDS_P2;PMS_P1;PMS_P2;Temp;Humidity;BMP_temperature;BMP_pressure;BME280_temperature;BME280_humidity;BME280_pressure;Samples;Min_cycle;Max_cycle;Signal;HPM_P1;HPM_P2
2022/09/24 00:01:20;;;;;;;8.55;6.18;;;;;;;8.94;100.00;101178.75;4965259;28;20187;-47
2022/09/24 00:03:52;;;;;;;10.10;6.63;;;;;;;8.82;100.00;101178.16;4969591;28;20564;-47
2022/09/24 00:06:18;;;;;;;7.60;6.10;;;;;;;8.99;100.00;101161.69;4964506;28;20193;-47
2022/09/24 00:08:45;;;;;;;6.13;5.53;;;;;;;9.05;100.00;101169.56;4970436;28;20646;-46
2022/09/24 00:11:11;;;;;;;8.50;6.03;;;;;;;9.11;100.00;101178.31;4966212;28;20189;-52
2022/09/24 00:13:39;;;;;;;6.30;5.70;;;;;;;9.19;100.00;101173.66;4964970;28;20709;-49
2022/09/24 00:16:12;;;;;;;9.82;6.20;;;;;;;9.20;100.00;101170.06;4960845;28;20182;-48
2022/09/24 00:18:38;;;;;;;9.05;6.22;;;;;;;8.89;100.00;101180.69;4962069;28;20266;-47
2022/09/24 00:21:34;;;;;;;7.65;6.85;;;;;;;8.80;100.00;101173.78;4977934;28;20272;-46
2022/09/24 00:24:02;;;;;;;7.85;6.72;;;;;;;8.84;100.00;101170.13;4967388;28;20202;-51
2022/09/24 00:29:16;;;;;;;8.25;7.00;;;;;;;8.94;100.00;101158.25;4963707;28;20705;-50
2022/09/24 00:31:42;;;;;;;8.18;6.90;;;;;;;8.95;100.00;101162.69;4966869;28;20270;-49
2022/09/24 00:34:07;;;;;;;10.02;7.05;;;;;;;8.90;100.00;101158.38;4961799;28;20233;-49
2022/09/24 00:36:33;;;;;;;10.30;7.03;;;;;;;8.83;100.00;101160.31;4965687;28;20674;-48
2022/09/24 00:38:59;;;;;;;10.38;7.03;;;;;;;8.75;100.00;101160.53;4967745;28;20222;-50
2022/09/24 00:41:28;;;;;;;9.95;7.40;;;;;;;8.75;100.00;101157.88;4964393;28;20197;-49
2022/09/24 00:43:54;;;;;;;9.15;7.00;;;;;;;8.73;100.00;101151.69;4964996;28;20307;-52
2022/09/24 00:46:39;;;;;;;12.18;6.35;;;;;;;8.82;100.00;101148.78;4962235;28;20641;-48
2022/09/24 00:49:12;;;;;;;10.95;7.88;;;;;;;8.90;100.00;101148.59;4964900;28;20224;-48
2022/09/24 00:51:40;;;;;;;10.63;7.57;;;;;;;8.77;100.00;101152.50;4963748;28;20190;-48
2022/09/24 00:54:10;;;;;;;14.05;7.82;;;;;;;8.79;100.00;101159.56;4959064;28;20310;-46
2022/09/24 00:56:38;;;;;;;8.85;6.57;;;;;;;8.96;100.00;101153.75;4961984;28;20241;-49
2022/09/24 00:59:06;;;;;;;9.90;7.38;;;;;;;9.01;100.00;101146.50;4960183;28;20744;-51
2022/09/24 01:01:31;;;;;;;10.77;7.03;;;;;;;9.06;100.00;101135.69;4964529;28;20320;-49
2022/09/24 01:03:59;;;;;;;8.73;6.78;;;;;;;8.99;100.00;101140.31;4958355;28;20272;-50
2022/09/24 01:06:25;;;;;;;9.70;7.20;;;;;;;8.98;100.00;101141.22;4960721;28;20182;-46
2022/09/24 01:08:52;;;;;;;11.07;7.88;;;;;;;9.07;100.00;101137.41;4962438;28;20212;-48
2022/09/24 01:11:48;;;;;;;9.35;7.13;;;;;;;9.08;100.00;101137.38;4964598;28;20186;-47
2022/09/24 01:15:07;;;;;;;8.95;6.95;;;;;;;9.16;100.00;101138.97;4959219;28;20190;-49
2022/09/24 01:17:38;;;;;;;12.20;7.72;;;;;;;9.15;100.00;101137.22;4939349;28;20226;-49
2022/09/24 01:20:41;;;;;;;9.10;7.50;;;;;;;9.19;100.00;101139.78;4960469;28;20281;-48
2022/09/24 01:23:14;;;;;;;10.15;7.78;;;;;;;9.16;100.00;101134.53;4967244;28;20196;-45
2022/09/24 01:26:06;;;;;;;10.57;8.25;;;;;;;9.13;100.00;101136.38;4971044;28;20170;-47
2022/09/24 01:28:51;;;;;;;10.52;8.20;;;;;;;8.99;100.00;101129.63;4960686;28;20498;-50
2022/09/24 01:31:34;;;;;;;11.85;8.68;;;;;;;9.02;100.00;101136.69;4962276;28;20229;-47
2022/09/24 01:34:07;;;;;;;10.88;7.60;;;;;;;9.03;100.00;101130.41;4961093;28;20221;-51
2022/09/24 01:36:35;;;;;;;13.93;8.68;;;;;;;9.13;100.00;101139.06;4964585;28;20199;-48
2022/09/24 01:39:04;;;;;;;8.73;7.18;;;;;;;9.26;100.00;101132.47;4964753;28;20206;-47
2022/09/24 01:41:33;;;;;;;7.68;6.88;;;;;;;9.34;100.00;101137.59;4961448;28;20198;-48
2022/09/24 01:44:00;;;;;;;10.20;8.10;;;;;;;9.26;100.00;101132.47;4966694;28;20316;-52
2022/09/24 01:46:26;;;;;;;7.95;7.10;;;;;;;9.35;100.00;101128.66;4965648;28;20197;-47
2022/09/24 01:48:52;;;;;;;8.95;6.82;;;;;;;9.37;100.00;101122.34;4966530;28;20202;-49
2022/09/24 01:51:25;;;;;;;8.77;7.18;;;;;;;9.32;100.00;101118.94;4965331;28;20189;-48
2022/09/24 01:54:00;;;;;;;8.90;7.60;;;;;;;9.26;100.00;101119.09;4970374;28;20182;-52
2022/09/24 01:56:35;;;;;;;10.90;7.53;;;;;;;9.27;100.00;101116.38;4959419;28;20229;-47
2022/09/24 01:59:15;;;;;;;8.95;7.75;;;;;;;9.27;100.00;101126.19;4965874;28;20681;-49
2022/09/24 02:01:46;;;;;;;7.53;6.43;;;;;;;9.35;100.00;101118.81;4962059;28;20195;-51
2022/09/24 02:04:15;;;;;;;10.13;7.07;;;;;;;9.36;100.00;101112.56;4963605;28;20216;-51
2022/09/24 02:06:56;;;;;;;11.45;7.38;;;;;;;9.29;100.00;101119.00;4961534;28;20182;-47
2022/09/24 02:09:32;;;;;;;7.80;6.10;;;;;;;9.36;100.00;101115.25;4962618;28;20573;-47
2022/09/24 02:12:02;;;;;;;9.88;7.82;;;;;;;9.23;100.00;101120.06;4964969;28;20227;-53
2022/09/24 02:14:31;;;;;;;7.60;6.82;;;;;;;9.38;100.00;101126.78;4964550;28;20217;-51
2022/09/24 02:16:59;;;;;;;10.65;7.68;;;;;;;9.37;100.00;101113.44;4966404;28;20194;-48
2022/09/24 02:19:28;;;;;;;9.73;7.75;;;;;;;9.33;100.00;101107.28;4960931;28;20222;-48
2022/09/24 02:21:53;;;;;;;6.65;5.97;;;;;;;9.41;100.00;101109.75;4959635;28;20279;-52
2022/09/24 02:24:21;;;;;;;10.20;7.30;;;;;;;9.33;100.00;101114.44;4960066;28;20619;-48
2022/09/24 02:26:48;;;;;;;8.52;7.63;;;;;;;9.34;100.00;101122.44;4966132;28;20177;-48
2022/09/24 02:29:13;;;;;;;8.50;7.32;;;;;;;9.35;100.00;101120.63;4963781;28;20217;-48
2022/09/24 02:31:47;;;;;;;8.05;7.25;;;;;;;9.35;100.00;101109.94;4960140;28;20181;-48
2022/09/24 02:34:22;;;;;;;8.38;7.13;;;;;;;9.41;100.00;101107.09;4967565;28;20191;-51
2022/09/24 02:36:54;;;;;;;8.45;7.65;;;;;;;9.31;100.00;101100.25;4967961;28;20200;-47
2022/09/24 02:39:19;;;;;;;8.20;7.47;;;;;;;9.39;100.00;101111.59;4963388;28;20213;-48
2022/09/24 02:41:47;;;;;;;8.20;7.40;;;;;;;9.40;100.00;101113.34;4963070;28;20273;-48
2022/09/24 02:44:15;;;;;;;6.88;6.20;;;;;;;9.49;100.00;101108.63;4966699;28;20190;-48
2022/09/24 02:46:41;;;;;;;8.77;6.82;;;;;;;9.44;100.00;101107.84;4969620;28;20189;-47
2022/09/24 02:49:08;;;;;;;8.10;7.38;;;;;;;9.35;100.00;101101.91;4960752;28;20205;-52
2022/09/24 02:51:34;;;;;;;10.43;8.00;;;;;;;9.30;100.00;101111.88;4962562;28;20249;-48
2022/09/24 02:54:00;;;;;;;8.05;7.28;;;;;;;9.29;100.00;101100.28;4968606;28;20185;-48
2022/09/24 02:56:27;;;;;;;7.75;6.95;;;;;;;9.32;100.00;101113.56;4965829;28;20595;-51
2022/09/24 02:58:53;;;;;;;10.02;7.35;;;;;;;9.34;100.00;101106.38;4969140;28;20206;-49
2022/09/24 03:01:19;;;;;;;8.27;7.47;;;;;;;9.36;100.00;101106.31;4966922;28;20194;-48
2022/09/24 03:03:45;;;;;;;8.95;7.72;;;;;;;9.41;100.00;101107.09;4968709;28;20246;-48
2022/09/24 03:06:13;;;;;;;9.15;8.20;;;;;;;9.39;100.00;101098.22;4970292;28;20254;-50
2022/09/24 03:08:41;;;;;;;8.85;8.02;;;;;;;9.41;100.00;101113.31;4963086;28;20186;-45
2022/09/24 03:11:10;;;;;;;7.13;6.53;;;;;;;9.47;100.00;101098.88;4966633;28;20248;-49
2022/09/24 03:13:39;;;;;;;8.63;7.90;;;;;;;9.48;100.00;101098.81;4963526;28;20302;-52
2022/09/24 03:16:06;;;;;;;8.05;7.35;;;;;;;9.48;100.00;101103.31;4980208;28;20185;-50
2022/09/24 03:18:32;;;;;;;8.85;8.05;;;;;;;9.34;100.00;101095.69;4968610;28;20643;-50
2022/09/24 03:21:04;;;;;;;8.57;7.78;;;;;;;9.37;100.00;101095.59;4967749;28;20237;-48
2022/09/24 03:23:29;;;;;;;10.15;8.50;;;;;;;9.31;100.00;101101.09;4966586;28;20269;-46
2022/09/24 03:25:55;;;;;;;9.65;8.63;;;;;;;9.26;100.00;101097.69;4958388;28;20677;-48
2022/09/24 03:28:21;;;;;;;10.32;8.93;;;;;;;9.34;100.00;101101.03;4965190;28;20175;-50
2022/09/24 03:30:59;;;;;;;9.50;8.60;;;;;;;9.35;100.00;101093.88;4964410;28;20232;-49
2022/09/24 03:33:44;;;;;;;9.48;8.50;;;;;;;9.38;100.00;101100.03;4969851;28;20191;-47
2022/09/24 03:36:10;;;;;;;10.13;9.00;;;;;;;9.47;100.00;101099.75;4968962;28;20186;-47
2022/09/24 03:38:37;;;;;;;9.60;8.68;;;;;;;9.44;100.00;101091.81;4964163;28;20185;-47
2022/09/24 03:41:04;;;;;;;9.15;8.25;;;;;;;9.43;100.00;101097.22;4970338;28;20209;-51
2022/09/24 03:43:30;;;;;;;10.52;8.30;;;;;;;9.51;100.00;101099.66;4963972;28;20174;-48
2022/09/24 03:45:56;;;;;;;9.13;8.23;;;;;;;9.48;100.00;101090.81;4966470;28;20183;-48
2022/09/24 03:48:22;;;;;;;8.85;8.02;;;;;;;9.51;100.00;101095.22;4964807;28;20291;-49
2022/09/24 03:50:48;;;;;;;9.00;8.20;;;;;;;9.49;100.00;101089.03;4963956;28;20274;-50
2022/09/24 03:53:14;;;;;;;9.43;7.80;;;;;;;9.44;100.00;101088.25;4957934;28;20257;-52
2022/09/24 03:55:47;;;;;;;9.88;8.98;;;;;;;9.36;100.00;101093.84;4958829;28;20658;-51
2022/09/24 03:58:14;;;;;;;10.48;9.48;;;;;;;9.33;100.00;101098.41;4968515;28;20267;-46
2022/09/24 04:00:41;;;;;;;10.63;9.52;;;;;;;9.31;100.00;101089.53;4969615;28;20204;-49
2022/09/24 04:03:07;;;;;;;11.13;10.02;;;;;;;9.26;100.00;101084.34;4968790;28;20245;-49
2022/09/24 04:05:33;;;;;;;11.43;10.30;;;;;;;9.19;100.00;101097.00;4966287;28;20660;-50
2022/09/24 04:07:59;;;;;;;10.95;9.85;;;;;;;9.17;100.00;101088.16;4970169;28;20288;-49
2022/09/24 04:10:25;;;;;;;12.18;10.43;;;;;;;9.16;100.00;101085.50;4967675;28;20989;-48
2022/09/24 04:12:54;;;;;;;12.15;11.02;;;;;;;9.15;100.00;101084.63;4963476;28;20201;-49
2022/09/24 04:15:20;;;;;;;11.50;10.30;;;;;;;9.18;100.00;101081.91;4963445;28;20273;-47
2022/09/24 04:17:58;;;;;;;12.93;11.65;;;;;;;9.22;100.00;101086.19;4969755;28;20232;-48
2022/09/24 04:20:26;;;;;;;12.95;11.48;;;;;;;9.27;100.00;101081.63;4965210;28;20755;-49
2022/09/24 04:22:54;;;;;;;12.70;11.50;;;;;;;9.28;100.00;101077.16;4967243;28;20558;-48
2022/09/24 04:25:21;;;;;;;11.65;10.55;;;;;;;9.31;100.00;101082.38;4968533;28;20278;-47
2022/09/24 04:27:54;;;;;;;11.85;10.35;;;;;;;9.40;100.00;101079.47;4964185;28;20193;-48
2022/09/24 04:30:20;;;;;;;12.23;9.80;;;;;;;9.44;100.00;101081.09;4964273;28;20341;-48
2022/09/24 04:32:46;;;;;;;10.82;9.85;;;;;;;9.41;100.00;101078.53;4957378;28;20194;-48
2022/09/24 04:35:11;;;;;;;11.65;10.45;;;;;;;9.42;100.00;101082.97;4961483;28;20235;-47
2022/09/24 04:37:37;;;;;;;9.95;9.00;;;;;;;9.47;100.00;101078.38;4969078;28;20193;-51
2022/09/24 04:40:04;;;;;;;9.57;8.63;;;;;;;9.49;100.00;101081.88;4964779;28;20359;-48
2022/09/24 04:42:30;;;;;;;11.30;10.10;;;;;;;9.50;100.00;101066.69;4961463;28;20201;-48
2022/09/24 04:44:55;;;;;;;11.25;10.15;;;;;;;9.45;100.00;101077.53;4956963;28;20178;-49
2022/09/24 04:47:24;;;;;;;9.43;8.55;;;;;;;9.49;100.00;101073.84;4957716;28;20224;-49
2022/09/24 04:49:50;;;;;;;10.27;9.20;;;;;;;9.49;100.00;101070.31;4961987;28;20202;-50
2022/09/24 04:52:16;;;;;;;12.05;10.95;;;;;;;9.33;100.00;101075.19;4960051;28;20542;-49
2022/09/24 04:54:43;;;;;;;11.65;9.82;;;;;;;9.35;100.00;101073.38;4963643;28;20182;-48
2022/09/24 04:57:10;;;;;;;11.02;9.80;;;;;;;9.36;100.00;101082.25;4970225;28;20241;-49
2022/09/24 04:59:35;;;;;;;11.38;10.38;;;;;;;9.38;100.00;101072.38;4967037;28;20674;-49
2022/09/24 05:02:01;;;;;;;12.40;11.13;;;;;;;9.33;100.00;101088.56;4969931;28;20189;-49
2022/09/24 05:04:27;;;;;;;11.70;10.60;;;;;;;9.31;100.00;101079.72;4968216;28;20785;-48
2022/09/24 05:06:53;;;;;;;12.90;11.60;;;;;;;9.27;100.00;101086.06;4968081;28;20268;-48
2022/09/24 05:09:18;;;;;;;13.43;12.13;;;;;;;9.32;100.00;101081.50;4967229;28;20268;-50
2022/09/24 05:11:44;;;;;;;14.27;12.90;;;;;;;9.30;100.00;101083.31;4966150;28;20186;-50
2022/09/24 05:14:10;;;;;;;14.43;13.00;;;;;;;9.34;100.00;101079.66;4967999;28;20657;-50
2022/09/24 05:16:35;;;;;;;13.35;11.93;;;;;;;9.42;100.00;101088.34;4963779;28;20562;-50
2022/09/24 05:19:03;;;;;;;15.02;12.27;;;;;;;9.48;100.00;101088.13;4963598;28;20233;-50
2022/09/24 05:21:29;;;;;;;15.68;12.25;;;;;;;9.45;100.00;101096.25;4965285;28;20182;-50
2022/09/24 05:23:55;;;;;;;13.50;12.10;;;;;;;9.48;100.00;101089.94;4969156;28;20178;-49
2022/09/24 05:29:04;;;;;;;12.23;10.90;;;;;;;9.57;100.00;101103.03;4963905;28;20208;-49
2022/09/24 05:31:29;;;;;;;14.43;11.73;;;;;;;9.55;100.00;101093.31;4962656;28;20182;-51
2022/09/24 05:33:55;;;;;;;15.93;12.88;;;;;;;9.63;100.00;101093.94;4961770;28;20758;-49
2022/09/24 05:36:21;;;;;;;14.95;12.98;;;;;;;9.48;100.00;101089.94;4961285;28;20597;-52
2022/09/24 05:38:47;;;;;;;13.07;11.77;;;;;;;9.56;100.00;101087.91;4980630;28;20240;-51
2022/09/24 05:41:12;;;;;;;18.30;13.85;;;;;;;9.50;100.00;101096.13;4965427;28;20198;-50
2022/09/24 05:43:39;;;;;;;14.73;13.30;;;;;;;9.58;100.00;101087.88;4962378;28;20181;-51
2022/09/24 05:46:06;;;;;;;14.30;12.77;;;;;;;9.63;100.00;101093.94;4958965;28;20258;-51
2022/09/24 05:48:32;;;;;;;15.55;12.45;;;;;;;9.63;100.00;101097.50;4957902;28;20612;-50
2022/09/24 05:51:00;;;;;;;15.20;13.70;;;;;;;9.66;100.00;101099.19;4963825;28;20257;-51
2022/09/24 05:53:26;;;;;;;17.30;14.90;;;;;;;9.65;100.00;101106.34;4966009;28;20182;-51
2022/09/24 05:55:51;;;;;;;17.17;15.38;;;;;;;9.61;100.00;101104.69;4962825;28;20197;-51
2022/09/24 05:58:17;;;;;;;16.20;14.45;;;;;;;9.70;100.00;101107.09;4964205;28;20196;-50
2022/09/24 06:00:44;;;;;;;16.92;14.77;;;;;;;9.66;100.00;101101.88;4955888;28;20214;-51
2022/09/24 06:03:14;;;;;;;16.65;14.95;;;;;;;9.72;100.00;101101.69;4959819;28;20193;-51
2022/09/24 06:05:48;;;;;;;17.85;15.52;;;;;;;9.79;100.00;101094.34;4967363;28;20182;-50
2022/09/24 06:08:15;;;;;;;19.00;15.18;;;;;;;9.82;100.00;101097.81;4962285;28;20638;-50
2022/09/24 06:10:46;;;;;;;17.83;15.90;;;;;;;9.85;100.00;101102.19;4962301;28;20757;-49
2022/09/24 06:13:16;;;;;;;17.73;15.82;;;;;;;9.87;100.00;101100.34;4960926;28;20202;-50
2022/09/24 06:15:42;;;;;;;17.73;14.50;;;;;;;9.92;100.00;101102.88;4959963;28;20181;-51
2022/09/24 06:18:10;;;;;;;20.15;16.98;;;;;;;9.93;100.00;101105.53;4971174;28;20676;-51
2022/09/24 06:20:36;;;;;;;18.42;16.35;;;;;;;9.98;100.00;101108.91;4969411;28;20206;-50
2022/09/24 06:23:02;;;;;;;17.33;15.52;;;;;;;10.06;100.00;101101.53;4967208;28;20522;-50
2022/09/24 06:25:28;;;;;;;18.35;15.57;;;;;;;10.14;100.00;101103.94;4968021;28;20192;-49
2022/09/24 06:27:59;;;;;;;18.75;15.95;;;;;;;10.19;100.00;101106.47;4965434;28;20178;-50
2022/09/24 06:30:34;;;;;;;16.80;15.00;;;;;;;10.26;100.00;101114.28;4964332;28;20201;-50
2022/09/24 06:33:04;;;;;;;15.82;14.18;;;;;;;10.35;100.00;101113.13;4960592;28;20472;-49
2022/09/24 06:35:33;;;;;;;18.27;16.38;;;;;;;10.39;100.00;101113.94;4959966;28;20854;-50
2022/09/24 06:37:59;;;;;;;16.77;14.63;;;;;;;10.47;100.00;101111.84;4965156;28;20300;-50
2022/09/24 06:40:25;;;;;;;16.08;14.48;;;;;;;10.54;100.00;101118.78;4967645;28;20216;-50
2022/09/24 06:42:53;;;;;;;17.92;16.15;;;;;;;10.54;100.00;101113.41;4965020;28;20649;-48
2022/09/24 06:45:19;;;;;;;21.02;17.67;;;;;;;10.61;100.00;101114.94;4964085;28;20194;-47
2022/09/24 06:47:55;;;;;;;20.27;18.15;;;;;;;10.63;100.00;101115.78;4962966;28;20741;-47
2022/09/24 06:50:23;;;;;;;18.85;17.15;;;;;;;10.70;100.00;101122.66;4962954;28;20618;-45
2022/09/24 06:52:48;;;;;;;22.83;20.42;;;;;;;10.76;100.00;101115.34;4960251;28;20202;-46
2022/09/24 06:55:15;;;;;;;21.35;18.58;;;;;;;10.88;100.00;101107.75;4968010;28;20189;-47
2022/09/24 06:57:41;;;;;;;24.70;22.05;;;;;;;10.96;100.00;101112.84;4962601;28;20665;-46
2022/09/24 07:00:07;;;;;;;25.80;22.98;;;;;;;11.04;100.00;101116.16;4960415;28;20216;-46
2022/09/24 07:02:33;;;;;;;25.08;22.08;;;;;;;11.16;100.00;101113.97;4975419;28;20201;-46
2022/09/24 07:04:58;;;;;;;25.42;22.85;;;;;;;11.30;100.00;101117.00;4959172;28;20186;-46
2022/09/24 07:07:32;;;;;;;25.65;22.95;;;;;;;11.41;100.00;101114.78;4965998;28;20194;-47
2022/09/24 07:09:59;;;;;;;27.60;24.70;;;;;;;11.44;100.00;101124.56;4963831;28;20194;-46
2022/09/24 07:12:24;;;;;;;26.02;23.40;;;;;;;11.53;100.00;101124.22;4960777;28;20233;-47
2022/09/24 07:14:50;;;;;;;28.67;24.98;;;;;;;11.63;100.00;101120.25;4956877;28;20658;-46
2022/09/24 07:17:15;;;;;;;24.45;22.15;;;;;;;11.73;100.00;101121.63;4956218;28;20202;-47
2022/09/24 07:19:41;;;;;;;26.60;23.55;;;;;;;11.81;100.00;101117.78;4968035;28;20578;-46
2022/09/24 07:22:07;;;;;;;30.67;25.15;;;;;;;11.89;100.00;101126.44;4964716;28;20315;-47
2022/09/24 07:24:32;;;;;;;25.83;22.90;;;;;;;11.95;100.00;101123.50;4961188;28;20198;-47
2022/09/24 07:26:58;;;;;;;27.00;24.13;;;;;;;12.06;100.00;101136.53;4959591;28;20175;-46
2022/09/24 07:29:24;;;;;;;26.42;23.63;;;;;;;12.12;100.00;101123.72;4956153;28;20221;-46
2022/09/24 07:31:50;;;;;;;28.13;24.70;;;;;;;12.04;100.00;101122.28;4964941;28;20178;-46
2022/09/24 07:34:16;;;;;;;28.02;25.08;;;;;;;12.17;100.00;101123.53;4965630;28;20188;-47
2022/09/24 07:36:42;;;;;;;26.38;23.70;;;;;;;12.28;100.00;101121.28;4963406;28;20324;-46
2022/09/24 07:39:07;;;;;;;29.90;25.33;;;;;;;12.29;100.00;101138.31;4964258;28;20203;-46
2022/09/24 07:41:33;;;;;;;26.20;23.50;;;;;;;12.41;100.00;101137.78;4970839;28;20189;-46
2022/09/24 07:43:59;;;;;;;28.83;24.67;;;;;;;12.42;100.00;101130.59;4971091;28;20174;-44
2022/09/24 07:46:25;;;;;;;33.72;25.88;;;;;;;12.39;100.00;101139.66;4972193;28;20181;-45
2022/09/24 07:48:57;;;;;;;29.73;26.50;;;;;;;12.47;100.00;101140.22;4971536;28;20212;-46
2022/09/24 07:51:27;;;;;;;31.67;27.33;;;;;;;12.44;100.00;101143.06;4965363;28;20194;-44
2022/09/24 07:53:53;;;;;;;30.30;26.92;;;;;;;12.50;100.00;101144.59;4970018;28;20190;-46
2022/09/24 07:56:19;;;;;;;33.05;27.00;;;;;;;12.58;100.00;101137.09;4972570;28;20557;-45
2022/09/24 07:58:51;;;;;;;29.00;25.50;;;;;;;12.62;100.00;101138.72;4967520;28;20214;-45
2022/09/24 08:01:18;;;;;;;34.08;28.73;;;;;;;12.54;100.00;101144.41;4966192;28;20185;-46
2022/09/24 08:03:45;;;;;;;32.08;26.77;;;;;;;12.63;100.00;101144.97;4968069;28;20244;-45
2022/09/24 08:06:11;;;;;;;29.70;25.73;;;;;;;12.68;100.00;101151.91;4971335;28;20178;-45
2022/09/24 08:08:37;;;;;;;31.20;27.90;;;;;;;12.69;100.00;101140.22;4972171;28;20194;-43
2022/09/24 08:11:05;;;;;;;31.02;27.67;;;;;;;12.71;100.00;101141.03;4969749;28;20186;-45
2022/09/24 08:13:30;;;;;;;29.67;26.52;;;;;;;12.75;100.00;101142.66;4965504;28;20182;-43
2022/09/24 08:15:59;;;;;;;24.45;21.85;;;;;;;12.93;100.00;101142.81;4965006;28;20194;-44
2022/09/24 08:18:25;;;;;;;28.33;25.38;;;;;;;12.93;100.00;101143.66;4968498;28;20209;-45
2022/09/24 08:20:51;;;;;;;31.98;25.88;;;;;;;13.05;100.00;101150.31;4971535;28;20181;-46
2022/09/24 08:23:16;;;;;;;35.15;27.98;;;;;;;13.06;100.00;101144.00;4969539;28;20194;-45
2022/09/24 08:25:41;;;;;;;29.95;26.60;;;;;;;13.07;100.00;101147.56;4966471;28;20167;-45
2022/09/24 08:28:09;;;;;;;36.72;29.10;;;;;;;12.96;100.00;101148.03;4963290;28;20179;-41
2022/09/24 08:30:35;;;;;;;31.45;27.83;;;;;;;13.13;100.00;101145.50;4965670;28;20198;-41
2022/09/24 08:33:00;;;;;;;33.00;28.83;;;;;;;13.03;100.00;101136.09;4957994;28;20175;-41
2022/09/24 08:35:26;;;;;;;30.48;27.17;;;;;;;13.19;100.00;101139.84;4967854;28;20178;-39
2022/09/24 08:37:55;;;;;;;31.58;25.17;;;;;;;13.43;100.00;101139.72;4968738;28;20302;-42
2022/09/24 08:40:26;;;;;;;31.42;27.15;;;;;;;13.54;99.42;101142.81;4966625;28;20197;-40
2022/09/24 08:43:21;;;;;;;30.38;25.30;;;;;;;13.53;98.26;101141.03;4963661;28;20237;-39
2022/09/24 08:48:41;;;;;;;27.83;24.90;;;;;;;13.71;97.16;101136.66;4969625;28;20216;-40
2022/09/24 08:51:12;;;;;;;27.92;23.50;;;;;;;14.07;96.84;101130.47;4963452;28;20178;-42
2022/09/24 08:53:48;;;;;;;25.08;22.38;;;;;;;14.32;95.09;101140.94;4968775;28;20732;-42
2022/09/24 08:56:19;;;;;;;25.15;22.48;;;;;;;14.46;93.13;101142.94;4965667;28;20174;-40
2022/09/24 08:58:56;;;;;;;24.00;21.65;;;;;;;14.75;91.29;101128.03;4963496;28;20269;-41
2022/09/24 09:01:30;;;;;;;26.50;21.98;;;;;;;14.80;89.88;101134.06;4970631;28;20224;-40
2022/09/24 09:04:03;;;;;;;25.15;22.48;;;;;;;14.76;91.32;101147.81;4967802;28;20192;-41
2022/09/24 09:06:57;;;;;;;27.33;21.67;;;;;;;14.71;91.60;101148.00;4955640;28;20190;-41
2022/09/24 09:09:31;;;;;;;25.83;23.10;;;;;;;14.65;91.61;101142.94;4967448;28;20209;-43
2022/09/24 09:12:01;;;;;;;25.92;21.75;;;;;;;14.58;91.24;101145.09;4966163;28;20191;-46
2022/09/24 09:14:29;;;;;;;26.70;22.77;;;;;;;14.58;92.39;101146.88;4965157;28;20618;-46
2022/09/24 09:16:59;;;;;;;24.77;21.50;;;;;;;14.32;92.12;101149.03;4954631;28;20205;-45
2022/09/24 09:19:30;;;;;;;24.00;21.23;;;;;;;14.35;91.86;101154.25;4964198;28;20230;-45
2022/09/24 09:22:16;;;;;;;22.50;19.63;;;;;;;14.13;91.88;101158.94;4965844;28;20190;-45
2022/09/24 09:24:52;;;;;;;21.45;18.70;;;;;;;14.30;92.45;101142.84;4965280;28;20849;-47
2022/09/24 09:27:19;;;;;;;21.30;17.45;;;;;;;14.19;91.80;101146.03;4963496;28;20185;-46
2022/09/24 09:29:49;;;;;;;19.20;15.25;;;;;;;14.49;91.33;101139.22;4972882;28;20208;-44
2022/09/24 09:32:46;;;;;;;21.17;16.33;;;;;;;14.24;90.03;101144.97;4972448;28;20546;-47
2022/09/24 09:35:34;;;;;;;20.60;15.68;;;;;;;14.19;89.21;101154.13;4967853;28;20193;-46
2022/09/24 09:38:22;;;;;;;19.42;16.80;;;;;;;14.16;90.16;101158.78;4974787;28;20221;-44
2022/09/24 09:41:01;;;;;;;19.65;17.40;;;;;;;14.16;90.52;101154.25;4968907;28;20250;-47
2022/09/24 09:43:27;;;;;;;18.60;16.70;;;;;;;14.31;90.77;101158.03;4956880;28;20265;-44
2022/09/24 09:46:25;;;;;;;21.10;17.83;;;;;;;14.41;90.06;101156.66;4964632;28;20741;-44
2022/09/24 09:48:55;;;;;;;20.25;18.13;;;;;;;14.41;89.74;101142.31;4926706;28;20309;-45
2022/09/24 09:51:24;;;;;;;21.50;17.88;;;;;;;14.32;89.33;101140.94;4964810;28;20285;-47
2022/09/24 09:54:08;;;;;;;23.90;20.17;;;;;;;14.22;90.51;101150.41;4965227;28;20185;-43
2022/09/24 09:56:37;;;;;;;21.65;18.52;;;;;;;14.30;90.84;101140.13;4963213;28;20189;-46
2022/09/24 09:59:11;;;;;;;20.48;18.17;;;;;;;14.28;90.68;101136.66;4961944;28;20234;-47
2022/09/24 10:01:40;;;;;;;22.20;19.42;;;;;;;14.22;90.55;101136.94;4960834;28;20193;-45
2022/09/24 10:04:27;;;;;;;21.88;18.58;;;;;;;14.49;90.26;101136.53;4967525;28;20189;-44
2022/09/24 10:07:12;;;;;;;22.70;18.08;;;;;;;14.66;89.03;101136.59;4967951;28;20602;-45
2022/09/24 10:09:40;;;;;;;21.25;19.05;;;;;;;14.01;90.25;101141.53;4958602;28;20624;-45
2022/09/24 10:12:18;;;;;;;26.08;20.25;;;;;;;14.17;90.84;101136.28;4964107;28;20345;-46
2022/09/24 10:14:56;;;;;;;18.98;16.98;;;;;;;14.55;90.84;101144.34;4960717;28;20263;-45
2022/09/24 10:17:26;;;;;;;23.90;17.35;;;;;;;14.72;90.52;101138.97;4967136;28;20703;-47
2022/09/24 10:19:51;;;;;;;18.20;15.30;;;;;;;15.02;89.79;101146.44;4959764;28;20209;-46
2022/09/24 10:22:27;;;;;;;19.52;16.58;;;;;;;14.85;88.68;101139.22;4966345;28;20193;-47
2022/09/24 10:24:55;;;;;;;17.98;16.10;;;;;;;15.11;88.38;101150.47;4962949;28;20222;-45
2022/09/24 10:27:34;;;;;;;22.58;17.02;;;;;;;14.74;87.90;101145.16;4967456;28;20186;-46
2022/09/24 10:32:54;;;;;;;18.20;16.33;;;;;;;14.51;88.73;101137.31;4965088;28;20186;-46
2022/09/24 10:35:22;;;;;;;18.15;16.13;;;;;;;15.04;89.08;101137.34;4961943;28;20585;-46
2022/09/24 10:37:58;;;;;;;19.60;15.45;;;;;;;15.08;87.81;101137.16;4968450;28;20221;-44
2022/09/24 10:40:29;;;;;;;18.52;15.95;;;;;;;15.16;87.97;101148.44;4962650;28;20700;-46
2022/09/24 10:42:57;;;;;;;16.10;14.38;;;;;;;15.21;88.55;101135.56;4964032;28;20842;-45
2022/09/24 10:45:29;;;;;;;21.02;16.45;;;;;;;15.02;88.64;101131.16;4962842;28;20275;-47
2022/09/24 10:48:12;;;;;;;19.67;16.30;;;;;;;15.09;87.95;101134.41;4956014;28;20214;-47
2022/09/24 10:51:10;;;;;;;17.35;15.25;;;;;;;15.17;87.60;101136.69;4968268;28;20209;-46
2022/09/24 10:53:54;;;;;;;16.73;15.02;;;;;;;15.16;87.80;101133.09;4977405;28;20670;-46
2022/09/24 10:56:43;;;;;;;17.55;15.75;;;;;;;14.91;87.76;101138.03;4963197;28;20756;-44
2022/09/24 10:59:23;;;;;;;22.13;16.35;;;;;;;14.79;88.24;101139.53;4965038;28;20224;-49
2022/09/24 11:01:51;;;;;;;15.65;13.90;;;;;;;14.83;88.91;101139.31;4966215;28;20178;-46
2022/09/24 11:04:42;;;;;;;17.83;14.70;;;;;;;15.04;88.58;101133.75;4966536;28;20195;-45
2022/09/24 11:07:43;;;;;;;16.65;13.93;;;;;;;15.02;88.56;101138.34;4964552;28;20274;-52
2022/09/24 11:10:27;;;;;;;17.83;14.73;;;;;;;14.83;88.46;101136.59;4891930;29;20279;-47
2022/09/24 11:13:11;;;;;;;18.52;15.70;;;;;;;14.86;88.44;101132.00;4961849;28;20202;-50
2022/09/24 11:16:13;;;;;;;17.92;14.90;;;;;;;14.84;88.84;101127.53;4968295;28;20202;-46
2022/09/24 11:19:00;;;;;;;17.10;14.55;;;;;;;15.00;89.08;101124.09;4904152;28;20351;-48
2022/09/24 11:21:47;;;;;;;17.13;15.32;;;;;;;14.88;88.76;101122.00;4966069;28;20209;-46
2022/09/24 11:24:34;;;;;;;17.75;14.32;;;;;;;14.86;88.31;101121.22;4963422;28;20292;-51
2022/09/24 11:27:09;;;;;;;16.55;14.65;;;;;;;14.71;88.25;101118.34;4969222;28;20186;-48
2022/09/24 11:29:50;;;;;;;19.60;14.70;;;;;;;14.71;88.47;101131.81;4959044;28;20234;-47
2022/09/24 11:32:37;;;;;;;17.80;14.60;;;;;;;14.67;88.60;101116.78;4965104;28;20186;-50
2022/09/24 11:35:20;;;;;;;18.25;16.13;;;;;;;14.49;89.11;101125.75;4966366;28;20649;-48
2022/09/24 11:37:57;;;;;;;21.02;16.35;;;;;;;14.57;89.98;101129.84;4961151;28;20692;-47
2022/09/24 11:40:38;;;;;;;18.17;16.05;;;;;;;14.57;89.76;101126.28;4960668;28;20277;-46